Time;durP1;ratioP1;P1;durP2;ratioP2;P2;SDS_P1;SDS_P2;PMS_P1;PMS_P2;Temp;Humidity;BMP_temperature;BMP_pressure;BME280_temperature;BME280_humidity;BME280_pressure;Samples;Min_cycle;Max_cycle;Signal;HPM_P1;HPM_P2
2023/03/29 00:00:48;;;;;;;3.20;2.30;;;20.10;71.40;;;;;;5068024;28;20586;-64
2023/03/29 00:03:14;;;;;;;5.38;2.80;;;20.10;71.40;;;;;;5064910;28;20710;-63
2023/03/29 00:05:43;;;;;;;2.40;2.20;;;20.10;71.40;;;;;;5061712;28;20199;-63
2023/03/29 00:08:13;;;;;;;2.90;2.38;;;20.10;71.40;;;;;;5066637;28;20268;-64
2023/03/29 00:10:40;;;;;;;2.30;2.10;;;20.10;71.40;;;;;;5063717;28;20230;-63
2023/03/29 00:13:06;;;;;;;2.65;2.45;;;20.10;71.40;;;;;;5059547;28;20198;-64
2023/03/29 00:15:33;;;;;;;3.80;3.03;;;20.10;71.30;;;;;;5066155;28;20199;-63
2023/03/29 00:18:00;;;;;;;2.67;2.35;;;20.10;71.30;;;;;;5065674;28;20195;-63
2023/03/29 00:20:27;;;;;;;2.17;1.98;;;20.10;71.30;;;;;;5070408;28;20209;-64
2023/03/29 00:22:54;;;;;;;5.03;2.25;;;20.10;71.30;;;;;;5056794;28;20218;-63
2023/03/29 00:25:22;;;;;;;2.78;2.05;;;20.10;71.30;;;;;;5055296;28;20257;-66
2023/03/29 00:27:49;;;;;;;3.08;1.85;;;20.10;71.30;;;;;;5063620;28;20199;-63
2023/03/29 00:30:16;;;;;;;3.85;2.42;;;20.10;71.30;;;;;;5068518;28;20564;-61
2023/03/29 00:32:43;;;;;;;3.05;2.20;;;20.10;71.20;;;;;;5060549;28;20698;-63
2023/03/29 00:35:10;;;;;;;2.22;1.95;;;20.10;71.30;;;;;;5060040;28;20268;-60
2023/03/29 00:37:38;;;;;;;3.33;2.40;;;20.10;71.20;;;;;;5068910;28;20210;-63
2023/03/29 00:40:09;;;;;;;2.58;1.95;;;20.10;71.20;;;;;;5072043;28;20210;-61
2023/03/29 00:42:37;;;;;;;2.67;2.03;;;20.10;71.20;;;;;;5074060;28;20199;-61
2023/03/29 00:45:16;;;;;;;3.10;2.30;;;20.10;71.20;;;;;;5067350;28;20252;-65
2023/03/29 00:47:45;;;;;;;5.55;2.33;;;20.10;71.20;;;;;;5071768;28;20195;-65
2023/03/29 00:50:15;;;;;;;3.38;2.03;;;20.10;71.20;;;;;;5068973;28;20211;-65
2023/03/29 00:52:45;;;;;;;2.20;1.65;;;20.10;71.20;;;;;;5078490;28;20223;-62
2023/03/29 00:55:15;;;;;;;3.55;2.53;;;20.10;71.20;;;;;;5068016;28;20209;-63
2023/03/29 00:57:45;;;;;;;2.20;1.80;;;20.10;71.20;;;;;;5067165;28;20195;-63
2023/03/29 01:00:16;;;;;;;3.60;1.88;;;20.10;71.20;;;;;;5075637;28;20201;-65
2023/03/29 01:02:49;;;;;;;2.55;2.00;;;20.10;71.20;;;;;;5076981;28;20688;-63
2023/03/29 01:05:23;;;;;;;3.28;1.92;;;20.10;71.20;;;;;;5067933;28;20256;-63
2023/03/29 01:07:56;;;;;;;3.75;2.58;;;20.10;71.20;;;;;;5070419;28;20360;-63
2023/03/29 01:10:29;;;;;;;2.38;1.70;;;20.10;71.10;;;;;;5066303;28;20305;-62
2023/03/29 01:13:04;;;;;;;2.55;2.03;;;20.00;71.00;;;;;;5064683;28;20241;-63
2023/03/29 01:15:31;;;;;;;2.45;2.25;;;20.10;71.10;;;;;;5066998;28;20195;-62
2023/03/29 01:18:00;;;;;;;1.75;1.50;;;20.00;71.10;;;;;;5068316;28;20597;-62
2023/03/29 01:20:42;;;;;;;2.80;1.70;;;20.00;71.00;;;;;;5063900;28;20197;-64
2023/03/29 01:23:26;;;;;;;2.00;1.85;;;20.00;71.00;;;;;;5071954;28;20233;-62
2023/03/29 01:26:01;;;;;;;2.17;1.80;;;20.00;71.10;;;;;;5057402;28;20198;-63
2023/03/29 01:28:35;;;;;;;1.95;1.67;;;20.00;71.00;;;;;;5058080;28;20218;-63
2023/03/29 01:31:07;;;;;;;2.58;2.00;;;20.00;71.00;;;;;;5067159;28;20728;-62
2023/03/29 01:33:39;;;;;;;1.95;1.75;;;20.00;71.00;;;;;;5065638;28;20222;-63
2023/03/29 01:36:12;;;;;;;2.60;1.98;;;20.00;71.00;;;;;;5062054;28;20202;-63
2023/03/29 01:38:43;;;;;;;2.55;1.75;;;20.00;71.00;;;;;;5077435;28;20558;-64
2023/03/29 01:41:10;;;;;;;2.83;1.95;;;20.00;71.00;;;;;;5066432;28;20202;-63
2023/03/29 01:43:43;;;;;;;2.00;1.42;;;20.00;71.00;;;;;;5062282;28;20207;-65
2023/03/29 01:46:14;;;;;;;2.20;1.83;;;20.00;71.00;;;;;;5073810;28;20194;-63
2023/03/29 01:48:49;;;;;;;2.20;1.85;;;20.00;70.90;;;;;;5067737;28;20214;-66
2023/03/29 01:51:22;;;;;;;2.78;1.92;;;20.00;70.90;;;;;;5067834;28;20286;-63
2023/03/29 01:53:54;;;;;;;2.40;2.20;;;20.00;71.00;;;;;;5069922;28;20673;-62
2023/03/29 01:56:26;;;;;;;1.48;1.38;;;20.00;70.90;;;;;;5058718;28;20198;-61
2023/03/29 01:59:00;;;;;;;1.88;1.40;;;20.00;70.90;;;;;;5067919;28;20269;-62
2023/03/29 02:01:30;;;;;;;3.70;2.10;;;20.00;70.90;;;;;;5075182;28;20281;-61
2023/03/29 02:04:01;;;;;;;2.95;2.10;;;20.00;70.90;;;;;;5066267;28;20190;-61
2023/03/29 02:06:30;;;;;;;2.20;1.83;;;20.00;70.90;;;;;;5065856;28;20200;-64
2023/03/29 02:08:57;;;;;;;1.67;1.45;;;20.00;71.60;;;;;;5070177;28;20199;-62
2023/03/29 02:11:25;;;;;;;2.35;1.85;;;20.00;70.90;;;;;;5068239;28;20272;-63
2023/03/29 02:13:54;;;;;;;2.67;2.10;;;20.00;70.80;;;;;;5066668;28;20701;-63
2023/03/29 02:16:21;;;;;;;2.47;1.95;;;20.00;70.90;;;;;;5065006;28;20233;-66
2023/03/29 02:18:49;;;;;;;1.83;1.40;;;20.00;70.80;;;;;;5067146;28;20195;-65
2023/03/29 02:21:23;;;;;;;2.10;1.65;;;20.00;70.90;;;;;;5062679;28;20201;-64
2023/03/29 02:23:53;;;;;;;2.20;1.60;;;20.00;70.80;;;;;;5060717;28;20609;-63
2023/03/29 02:26:21;;;;;;;1.70;1.50;;;20.00;70.80;;;;;;5066652;28;20198;-63
2023/03/29 02:28:48;;;;;;;1.95;1.58;;;20.00;70.80;;;;;;5068364;28;20199;-65
2023/03/29 02:31:23;;;;;;;2.30;1.73;;;19.90;70.70;;;;;;5069047;28;20292;-63
2023/03/29 02:33:55;;;;;;;1.83;1.40;;;19.90;70.70;;;;;;5066648;28;20490;-66
2023/03/29 02:36:28;;;;;;;2.22;1.80;;;19.90;70.70;;;;;;5060434;28;20566;-62
2023/03/29 02:38:57;;;;;;;2.85;1.75;;;19.90;70.70;;;;;;5063099;28;20554;-63
2023/03/29 02:41:26;;;;;;;3.05;1.75;;;19.90;70.60;;;;;;5075052;28;20191;-63
2023/03/29 02:43:54;;;;;;;2.72;2.25;;;19.90;70.60;;;;;;5064809;28;20207;-63
2023/03/29 02:46:23;;;;;;;1.90;1.58;;;19.90;70.60;;;;;;5063865;28;20674;-63
2023/03/29 02:48:52;;;;;;;2.20;1.88;;;19.90;70.60;;;;;;5061866;28;20191;-64
2023/03/29 02:51:22;;;;;;;3.05;1.70;;;19.90;70.60;;;;;;5059427;28;20245;-62
2023/03/29 02:53:53;;;;;;;2.08;1.50;;;19.90;70.60;;;;;;5062367;28;20415;-62
2023/03/29 02:56:20;;;;;;;2.25;1.77;;;19.90;70.60;;;;;;5066062;28;20202;-64
2023/03/29 02:58:46;;;;;;;2.78;1.83;;;19.90;70.60;;;;;;5063156;28;20248;-63
2023/03/29 03:01:14;;;;;;;2.20;1.48;;;19.90;70.60;;;;;;5072088;28;20202;-63
2023/03/29 03:03:43;;;;;;;1.63;1.30;;;19.90;71.40;;;;;;5066150;28;20203;-62
2023/03/29 03:06:11;;;;;;;1.90;1.50;;;19.90;70.60;;;;;;5067590;28;20289;-63
2023/03/29 03:08:37;;;;;;;2.58;1.60;;;19.90;70.50;;;;;;5069044;28;20202;-66
2023/03/29 03:11:04;;;;;;;1.70;1.60;;;19.90;70.60;;;;;;5072792;28;20199;-65
2023/03/29 03:13:31;;;;;;;2.13;1.80;;;19.90;70.50;;;;;;5064860;28;20228;-62
2023/03/29 03:15:57;;;;;;;1.50;1.40;;;19.90;70.50;;;;;;5064755;28;20190;-63
2023/03/29 03:18:24;;;;;;;1.52;1.30;;;19.90;70.50;;;;;;5069502;28;20224;-63
2023/03/29 03:21:00;;;;;;;1.85;1.40;;;19.90;71.30;;;;;;5071050;28;20195;-63
2023/03/29 03:23:27;;;;;;;2.00;1.40;;;19.90;70.50;;;;;;5067861;28;20210;-63
2023/03/29 03:25:54;;;;;;;1.83;1.60;;;19.90;70.50;;;;;;5066437;28;20187;-63
2023/03/29 03:28:23;;;;;;;2.40;1.83;;;19.90;70.50;;;;;;5064091;28;20245;-63
2023/03/29 03:30:50;;;;;;;1.52;1.42;;;19.90;70.50;;;;;;5068028;28;20217;-62
2023/03/29 03:33:17;;;;;;;1.70;1.60;;;19.90;70.50;;;;;;5065140;28;20218;-67
2023/03/29 03:35:46;;;;;;;1.92;1.70;;;19.90;70.50;;;;;;5062422;28;20728;-62
2023/03/29 03:38:15;;;;;;;1.60;1.45;;;19.90;70.50;;;;;;5065145;28;20205;-63
2023/03/29 03:40:42;;;;;;;1.70;1.30;;;19.90;70.50;;;;;;5070563;28;20559;-62
2023/03/29 03:43:09;;;;;;;2.80;1.90;;;19.90;70.40;;;;;;5063176;28;20228;-63
2023/03/29 03:45:35;;;;;;;2.47;1.85;;;19.90;70.40;;;;;;5069907;28;20558;-63
2023/03/29 03:48:02;;;;;;;1.58;1.27;;;19.90;70.40;;;;;;5062436;28;20260;-62
2023/03/29 03:50:29;;;;;;;1.50;1.30;;;19.90;71.20;;;;;;5057334;28;20196;-64
2023/03/29 03:52:55;;;;;;;1.65;1.25;;;19.90;70.40;;;;;;5068609;28;20279;-63
2023/03/29 03:55:23;;;;;;;2.03;1.45;;;19.90;70.40;;;;;;5059206;28;20336;-62
2023/03/29 03:57:50;;;;;;;1.60;1.20;;;19.90;70.40;;;;;;5065173;28;20673;-63
2023/03/29 04:00:21;;;;;;;1.30;1.20;;;19.80;70.30;;;;;;5074392;28;20206;-67
2023/03/29 04:02:49;;;;;;;1.98;1.20;;;19.90;70.40;;;;;;5062678;28;20570;-63
2023/03/29 04:05:16;;;;;;;1.88;1.30;;;19.80;70.30;;;;;;5068428;28;20198;-63
2023/03/29 04:07:43;;;;;;;1.40;1.25;;;19.80;70.30;;;;;;5072311;28;20253;-63
2023/03/29 04:10:10;;;;;;;1.65;1.30;;;19.80;70.30;;;;;;5072432;28;20233;-64
2023/03/29 04:12:39;;;;;;;1.70;1.48;;;19.80;70.30;;;;;;5061296;28;20767;-63
2023/03/29 04:15:07;;;;;;;1.85;1.50;;;19.80;70.30;;;;;;5069628;28;20209;-65
2023/03/29 04:17:34;;;;;;;1.60;1.40;;;19.80;70.20;;;;;;5068349;28;20306;-63
2023/03/29 04:20:06;;;;;;;1.30;1.10;;;19.80;70.20;;;;;;5079529;28;20346;-65
2023/03/29 04:22:32;;;;;;;2.25;1.80;;;19.80;70.30;;;;;;5067705;28;20219;-63
2023/03/29 04:24:59;;;;;;;1.40;1.27;;;19.80;70.20;;;;;;5070996;28;20195;-63
2023/03/29 04:27:26;;;;;;;1.83;1.42;;;19.80;70.20;;;;;;5068689;28;20199;-63
2023/03/29 04:29:54;;;;;;;1.95;1.50;;;19.80;70.20;;;;;;5069841;28;20241;-64
2023/03/29 04:32:21;;;;;;;1.83;1.38;;;19.80;70.20;;;;;;5069647;28;20563;-64
2023/03/29 04:34:48;;;;;;;1.90;1.35;;;19.80;70.30;;;;;;5069086;28;20191;-63
2023/03/29 04:37:15;;;;;;;1.20;1.00;;;19.80;70.10;;;;;;5058732;28;20253;-63
2023/03/29 04:39:43;;;;;;;1.20;1.10;;;19.80;70.20;;;;;;5061481;28;20194;-62
2023/03/29 04:42:11;;;;;;;2.47;1.60;;;19.80;70.20;;;;;;5069889;28;20252;-62
2023/03/29 04:44:40;;;;;;;1.80;1.45;;;19.80;70.20;;;;;;5065535;28;20269;-63
2023/03/29 04:47:10;;;;;;;2.30;2.05;;;19.80;70.10;;;;;;5066790;28;20295;-62
2023/03/29 04:49:37;;;;;;;1.45;1.10;;;19.80;70.20;;;;;;5071181;28;20277;-66
2023/03/29 04:52:04;;;;;;;1.75;1.30;;;19.80;70.10;;;;;;5065820;28;20550;-62
2023/03/29 04:54:30;;;;;;;1.58;1.40;;;19.80;70.10;;;;;;5068292;28;20245;-62
2023/03/29 04:56:57;;;;;;;1.30;1.10;;;19.80;70.10;;;;;;5070482;28;20191;-66
2023/03/29 04:59:24;;;;;;;1.60;1.30;;;19.80;70.10;;;;;;5067310;28;20217;-62
2023/03/29 05:01:51;;;;;;;1.45;1.30;;;19.80;70.10;;;;;;5072076;28;20221;-63
2023/03/29 05:04:19;;;;;;;1.63;0.90;;;19.80;70.10;;;;;;5071654;28;20197;-62
2023/03/29 05:06:46;;;;;;;1.50;1.27;;;19.80;70.10;;;;;;5067366;28;20191;-63
2023/03/29 05:09:13;;;;;;;1.60;1.25;;;19.80;70.10;;;;;;5069669;28;20543;-63
2023/03/29 05:11:39;;;;;;;1.90;1.50;;;19.80;70.10;;;;;;5068862;28;20198;-64
2023/03/29 05:14:08;;;;;;;1.55;1.00;;;19.80;70.10;;;;;;5063307;28;20219;-63
2023/03/29 05:16:36;;;;;;;1.85;1.45;;;19.80;70.10;;;;;;5064259;28;20671;-64
2023/03/29 05:19:04;;;;;;;1.58;1.15;;;19.80;70.10;;;;;;5078109;28;20186;-63
2023/03/29 05:21:33;;;;;;;1.70;1.30;;;19.80;70.00;;;;;;5068407;28;20211;-63
2023/03/29 05:23:59;;;;;;;1.77;1.13;;;19.80;70.00;;;;;;5069013;28;20199;-65
2023/03/29 05:26:26;;;;;;;1.70;1.35;;;19.80;70.00;;;;;;5070607;28;20668;-63
2023/03/29 05:28:53;;;;;;;1.70;1.35;;;19.80;70.00;;;;;;5067861;28;20202;-63
2023/03/29 05:31:20;;;;;;;1.52;1.20;;;19.80;69.90;;;;;;5070470;28;20729;-63
2023/03/29 05:33:47;;;;;;;1.10;0.93;;;19.80;70.00;;;;;;5065383;28;20240;-62
2023/03/29 05:36:16;;;;;;;1.98;1.58;;;19.80;70.00;;;;;;5065458;28;20198;-64
2023/03/29 05:38:45;;;;;;;1.50;1.40;;;19.80;69.90;;;;;;5074471;28;20187;-63
2023/03/29 05:41:12;;;;;;;1.48;0.98;;;19.80;69.90;;;;;;5061721;28;20194;-63
2023/03/29 05:43:39;;;;;;;1.30;1.20;;;19.80;69.90;;;;;;5063439;28;20755;-63
2023/03/29 05:46:06;;;;;;;1.70;1.25;;;19.80;69.90;;;;;;5065676;28;20187;-65
2023/03/29 05:48:33;;;;;;;1.70;1.45;;;19.80;70.00;;;;;;5069508;28;20282;-64
2023/03/29 05:51:00;;;;;;;1.67;1.30;;;19.80;70.00;;;;;;5075768;28;20191;-63
2023/03/29 05:53:28;;;;;;;1.20;1.00;;;19.80;70.00;;;;;;5064187;28;20219;-63
2023/03/29 05:55:56;;;;;;;1.40;1.20;;;19.80;69.90;;;;;;5063815;28;20271;-63
2023/03/29 05:58:25;;;;;;;1.83;1.20;;;19.80;69.90;;;;;;5067573;28;20198;-61
2023/03/29 06:00:52;;;;;;;1.67;1.20;;;19.80;69.90;;;;;;5071751;28;20191;-61
2023/03/29 06:03:22;;;;;;;1.60;1.25;;;19.90;70.00;;;;;;5069575;28;20570;-62
2023/03/29 06:05:56;;;;;;;1.20;0.90;;;19.90;69.90;;;;;;5066553;28;20273;-61
2023/03/29 06:08:23;;;;;;;1.27;1.15;;;19.90;69.90;;;;;;5067253;28;20203;-61
2023/03/29 06:10:50;;;;;;;1.33;1.10;;;19.90;69.90;;;;;;5069644;28;20731;-61
2023/03/29 06:13:18;;;;;;;1.30;1.17;;;19.90;69.90;;;;;;5061265;28;20305;-61
2023/03/29 06:15:45;;;;;;;2.22;1.42;;;19.90;69.90;;;;;;5066125;28;20206;-62
2023/03/29 06:18:12;;;;;;;1.38;1.02;;;19.90;69.90;;;;;;5067933;28;20655;-64
2023/03/29 06:20:38;;;;;;;1.40;1.15;;;19.90;69.90;;;;;;5069812;28;20195;-63
2023/03/29 06:23:06;;;;;;;1.33;1.23;;;19.90;69.90;;;;;;5069719;28;20617;-62
2023/03/29 06:25:34;;;;;;;1.67;1.20;;;19.90;69.90;;;;;;5060120;28;20187;-62
2023/03/29 06:28:01;;;;;;;1.70;1.20;;;19.90;69.90;;;;;;5065765;28;20301;-62
2023/03/29 06:30:29;;;;;;;1.45;1.30;;;19.90;69.90;;;;;;5065102;28;20199;-61
2023/03/29 06:32:56;;;;;;;1.45;1.10;;;19.90;69.90;;;;;;5067544;28;20233;-63
2023/03/29 06:35:23;;;;;;;1.50;1.23;;;19.90;69.90;;;;;;5071726;28;20213;-62
2023/03/29 06:37:49;;;;;;;1.10;0.82;;;19.90;69.90;;;;;;5069880;28;20209;-62
2023/03/29 06:40:17;;;;;;;1.40;1.25;;;19.90;69.90;;;;;;5075008;28;20193;-63
2023/03/29 06:42:44;;;;;;;1.35;1.15;;;19.90;69.90;;;;;;5063256;28;20194;-64
2023/03/29 06:45:11;;;;;;;3.92;1.25;;;19.90;69.90;;;;;;5068760;28;20200;-63
2023/03/29 06:47:40;;;;;;;1.90;1.35;;;19.90;69.80;;;;;;5067302;28;20196;-64
2023/03/29 06:50:08;;;;;;;1.70;1.20;;;19.90;69.80;;;;;;5066829;28;20264;-63
2023/03/29 06:52:34;;;;;;;1.40;1.27;;;19.90;69.90;;;;;;5068856;28;20297;-63
2023/03/29 06:55:01;;;;;;;1.48;1.17;;;19.90;69.80;;;;;;5064291;28;20219;-62
2023/03/29 06:57:28;;;;;;;1.30;1.10;;;19.90;69.80;;;;;;5063269;28;20294;-62
2023/03/29 06:59:55;;;;;;;1.10;1.00;;;19.90;69.80;;;;;;5073440;28;20195;-62
2023/03/29 07:02:21;;;;;;;1.30;1.08;;;19.90;69.90;;;;;;5066909;28;20523;-62
2023/03/29 07:04:50;;;;;;;1.55;1.20;;;19.90;69.80;;;;;;5073744;28;20195;-64
2023/03/29 07:07:19;;;;;;;1.40;1.13;;;19.90;69.80;;;;;;5061060;28;20190;-61
2023/03/29 07:09:52;;;;;;;1.23;1.00;;;19.90;69.80;;;;;;5070423;28;20190;-61
2023/03/29 07:12:19;;;;;;;1.50;1.10;;;19.90;69.80;;;;;;5065709;28;20191;-62
2023/03/29 07:14:46;;;;;;;1.40;1.10;;;19.90;69.80;;;;;;5061797;28;20211;-63
2023/03/29 07:17:13;;;;;;;1.02;0.85;;;19.90;69.80;;;;;;5060435;28;20232;-63
2023/03/29 07:19:39;;;;;;;2.25;1.13;;;19.90;69.80;;;;;;5059689;28;20286;-64
2023/03/29 07:22:08;;;;;;;1.50;1.05;;;19.90;69.80;;;;;;5065626;28;20622;-62
2023/03/29 07:24:35;;;;;;;1.40;1.20;;;19.90;69.80;;;;;;5064831;28;20267;-62
2023/03/29 07:27:02;;;;;;;1.20;1.00;;;19.90;69.80;;;;;;5060430;28;20259;-61
2023/03/29 07:29:28;;;;;;;1.38;1.00;;;19.90;69.80;;;;;;5069024;28;20244;-61
2023/03/29 07:31:56;;;;;;;1.10;0.90;;;19.90;69.80;;;;;;5065942;28;20240;-63
2023/03/29 07:34:23;;;;;;;1.50;1.30;;;19.90;69.80;;;;;;5068697;28;20218;-64
2023/03/29 07:36:50;;;;;;;1.60;1.10;;;19.90;69.80;;;;;;5052731;28;20264;-63
2023/03/29 07:39:19;;;;;;;1.48;1.38;;;19.90;69.80;;;;;;5071279;28;20202;-64
2023/03/29 07:41:45;;;;;;;1.52;1.20;;;19.90;69.80;;;;;;5071389;28;20244;-67
2023/03/29 07:44:12;;;;;;;1.20;1.00;;;19.90;69.80;;;;;;5066312;28;20772;-61
2023/03/29 07:46:41;;;;;;;1.25;1.13;;;19.90;69.80;;;;;;5065788;28;20315;-62
2023/03/29 07:49:08;;;;;;;1.40;1.10;;;19.90;69.80;;;;;;5069807;28;20255;-62
2023/03/29 07:51:35;;;;;;;1.92;1.10;;;19.90;69.80;;;;;;5070641;28;20195;-61
2023/03/29 07:54:02;;;;;;;1.60;1.10;;;19.90;69.80;;;;;;5073098;28;20256;-64
2023/03/29 07:56:30;;;;;;;1.45;1.23;;;19.90;69.80;;;;;;5070818;28;20195;-61
2023/03/29 07:58:57;;;;;;;1.48;1.13;;;19.90;69.80;;;;;;5063230;28;20949;-62
2023/03/29 08:01:24;;;;;;;1.30;1.00;;;20.00;69.90;;;;;;5076922;28;20282;-62
2023/03/29 08:03:51;;;;;;;1.23;0.90;;;20.00;70.40;;;;;;5072272;28;20200;-61
2023/03/29 08:06:17;;;;;;;1.23;1.00;;;20.00;70.30;;;;;;5066422;28;20211;-62
2023/03/29 08:08:44;;;;;;;1.42;1.33;;;20.00;70.20;;;;;;5071246;28;20195;-62
2023/03/29 08:11:11;;;;;;;7.97;1.73;;;20.00;70.20;;;;;;5072078;28;20195;-55
2023/03/29 08:13:39;;;;;;;2.85;1.08;;;20.00;70.60;;;;;;5068144;28;20219;-60
2023/03/29 08:16:07;;;;;;;3.28;1.20;;;20.10;70.50;;;;;;5080652;28;20260;-59
2023/03/29 08:18:33;;;;;;;3.22;1.20;;;20.10;70.50;;;;;;5072568;28;20191;-58
2023/03/29 08:21:00;;;;;;;1.20;1.10;;;20.10;70.50;;;;;;5073990;28;20744;-58
2023/03/29 08:23:26;;;;;;;2.45;1.08;;;20.10;70.60;;;;;;5069144;28;20582;-60
2023/03/29 08:25:54;;;;;;;1.45;1.20;;;20.10;70.60;;;;;;5070710;28;20229;-62
2023/03/29 08:28:21;;;;;;;3.78;1.30;;;20.10;71.60;;;;;;5068900;28;20590;-65
2023/03/29 08:30:49;;;;;;;2.63;1.30;;;20.10;71.00;;;;;;5070497;28;20191;-62
2023/03/29 08:33:16;;;;;;;4.90;1.17;;;20.10;71.00;;;;;;5071393;28;20629;-60
2023/03/29 08:35:42;;;;;;;1.55;1.27;;;20.10;71.10;;;;;;5076171;28;20726;-60
2023/03/29 08:38:10;;;;;;;2.03;1.27;;;20.10;71.20;;;;;;5073014;28;20343;-63
2023/03/29 08:40:36;;;;;;;1.38;1.10;;;20.10;70.80;;;;;;5072451;28;20195;-62
2023/03/29 08:43:22;;;;;;;1.20;1.00;;;20.10;70.30;;;;;;5065898;28;20272;-62
2023/03/29 08:46:01;;;;;;;1.92;1.33;;;20.00;70.90;;;;;;5067240;28;20202;-65
2023/03/29 08:48:31;;;;;;;2.85;1.35;;;20.00;71.00;;;;;;5073714;28;20186;-63
2023/03/29 08:51:02;;;;;;;1.60;1.20;;;20.00;70.70;;;;;;5070848;28;20199;-61
2023/03/29 08:53:34;;;;;;;1.48;1.00;;;20.00;70.50;;;;;;5067539;28;20252;-60
2023/03/29 08:56:04;;;;;;;1.63;1.20;;;20.00;70.20;;;;;;5072568;28;20559;-62
2023/03/29 08:58:34;;;;;;;1.40;1.30;;;20.00;70.20;;;;;;5066999;28;20248;-59
2023/03/29 09:01:04;;;;;;;1.35;1.15;;;20.00;70.30;;;;;;5074247;28;20195;-60
2023/03/29 09:03:36;;;;;;;1.40;1.20;;;20.00;71.00;;;;;;5071815;28;20204;-59
2023/03/29 09:06:05;;;;;;;3.35;1.05;;;20.10;70.40;;;;;;5064513;28;20252;-63
2023/03/29 09:08:35;;;;;;;4.82;0.98;;;20.10;70.40;;;;;;5069784;28;20520;-60
2023/03/29 09:11:14;;;;;;;2.30;1.27;;;20.10;71.20;;;;;;5070275;28;20198;-64
2023/03/29 09:13:51;;;;;;;2.30;1.52;;;20.10;70.40;;;;;;5066087;28;20194;-59
2023/03/29 09:16:30;;;;;;;1.10;0.90;;;20.10;70.40;;;;;;5074878;28;20608;-59
2023/03/29 09:19:06;;;;;;;1.40;1.10;;;20.10;70.40;;;;;;5064120;28;20202;-59
2023/03/29 09:21:40;;;;;;;1.25;1.15;;;20.10;70.40;;;;;;5070584;28;20211;-59
2023/03/29 09:24:24;;;;;;;1.58;1.00;;;20.10;70.40;;;;;;5073555;28;20206;-57
2023/03/29 09:26:54;;;;;;;1.55;1.13;;;20.10;70.40;;;;;;5062990;28;20597;-60
2023/03/29 09:29:33;;;;;;;3.03;1.20;;;20.10;70.40;;;;;;5065901;28;20209;-65
2023/03/29 09:32:03;;;;;;;1.30;1.05;;;20.10;70.40;;;;;;5071202;28;20187;-61
2023/03/29 09:34:35;;;;;;;1.08;0.88;;;20.10;70.40;;;;;;5064816;28;20226;-59
2023/03/29 09:37:07;;;;;;;1.23;1.00;;;20.10;70.40;;;;;;5062424;28;20191;-61
2023/03/29 09:39:36;;;;;;;1.30;1.00;;;20.10;70.40;;;;;;5066489;28;20195;-61
2023/03/29 09:42:07;;;;;;;1.20;1.00;;;20.10;70.30;;;;;;5070271;28;20191;-60
2023/03/29 09:44:38;;;;;;;2.10;0.88;;;20.10;70.30;;;;;;5070639;28;20205;-61
2023/03/29 09:47:12;;;;;;;1.33;1.05;;;20.10;70.30;;;;;;5069447;28;20203;-59
2023/03/29 09:49:43;;;;;;;1.30;1.10;;;20.10;70.30;;;;;;5078707;28;20206;-61
2023/03/29 09:52:15;;;;;;;1.48;0.95;;;20.10;70.40;;;;;;5064334;28;20207;-62
2023/03/29 09:54:42;;;;;;;1.20;1.10;;;20.10;70.30;;;;;;5069186;28;20246;-61
2023/03/29 09:57:11;;;;;;;1.52;1.33;;;20.10;70.40;;;;;;5060673;28;20256;-61
2023/03/29 09:59:38;;;;;;;1.95;1.33;;;20.10;70.40;;;;;;5070424;28;20653;-59
2023/03/29 10:02:09;;;;;;;1.45;1.05;;;20.10;70.50;;;;;;5070239;28;20236;-61
2023/03/29 10:04:35;;;;;;;6.72;1.50;;;20.10;70.50;;;;;;5072531;28;20207;-62
2023/03/29 10:07:03;;;;;;;5.03;1.70;;;20.10;70.60;;;;;;5062956;28;20322;-62
2023/03/29 10:09:32;;;;;;;1.60;1.00;;;20.20;71.10;;;;;;5054675;28;20454;-64
2023/03/29 10:12:02;;;;;;;1.10;0.90;;;20.20;71.30;;;;;;5059269;28;20264;-65
2023/03/29 10:14:33;;;;;;;4.53;1.25;;;20.20;71.40;;;;;;5067274;28;20219;-65
2023/03/29 10:17:00;;;;;;;2.13;1.20;;;20.20;71.50;;;;;;5070281;28;20198;-63
2023/03/29 10:19:33;;;;;;;4.25;1.10;;;20.20;71.60;;;;;;5076286;28;20531;-65
2023/03/29 10:22:01;;;;;;;2.13;1.58;;;20.30;71.70;;;;;;5073188;28;20298;-62
2023/03/29 10:24:28;;;;;;;1.33;0.90;;;20.30;72.10;;;;;;5067075;28;20590;-63
2023/03/29 10:26:57;;;;;;;1.20;1.08;;;20.30;71.90;;;;;;5068712;28;20206;-65
2023/03/29 10:29:26;;;;;;;3.78;0.98;;;20.30;72.00;;;;;;5063199;28;20187;-63
2023/03/29 10:31:53;;;;;;;1.80;1.00;;;20.30;72.00;;;;;;5073400;28;20285;-65
2023/03/29 10:34:24;;;;;;;2.60;1.00;;;20.40;72.10;;;;;;5066201;28;20618;-68
2023/03/29 10:36:57;;;;;;;2.60;0.95;;;20.40;72.20;;;;;;5059927;28;20204;-64
2023/03/29 10:39:27;;;;;;;1.23;0.90;;;20.40;72.30;;;;;;5069457;28;20202;-63
2023/03/29 10:41:54;;;;;;;3.90;1.08;;;20.40;72.30;;;;;;5062170;28;20250;-69
2023/03/29 10:44:27;;;;;;;55.22;23.60;;;20.40;72.30;;;;;;5069527;28;20221;-50
2023/03/29 10:46:54;;;;;;;16.40;3.73;;;20.70;72.80;;;;;;5060766;28;20227;-53
2023/03/29 10:49:23;;;;;;;48.67;7.75;;;20.80;73.10;;;;;;5066052;28;20960;-54
2023/03/29 10:51:52;;;;;;;11.80;2.55;;;21.00;72.80;;;;;;5063299;28;20458;-55
2023/03/29 10:54:22;;;;;;;231.70;33.58;;;21.00;72.40;;;;;;5064759;28;20454;-51
2023/03/29 10:56:52;;;;;;;22.53;4.67;;;21.10;73.60;;;;;;4953892;28;20238;-55
2023/03/29 10:59:29;;;;;;;20.60;4.80;;;21.00;72.40;;;;;;5021967;28;20461;-51
2023/03/29 11:02:28;;;;;;;28.47;4.47;;;20.90;72.40;;;;;;5017850;28;20962;-53
2023/03/29 11:05:08;;;;;;;13.87;3.20;;;20.80;72.30;;;;;;5021078;28;20814;-53
2023/03/29 11:07:47;;;;;;;14.52;3.20;;;20.80;72.50;;;;;;5020068;28;20471;-53
2023/03/29 11:10:29;;;;;;;27.45;3.35;;;20.80;72.50;;;;;;5026099;28;20258;-54
2023/03/29 11:13:02;;;;;;;11.50;3.43;;;20.80;72.50;;;;;;5021000;28;20322;-52
2023/03/29 11:15:39;;;;;;;10.45;3.40;;;20.80;72.60;;;;;;5021650;28;20557;-49
2023/03/29 11:18:21;;;;;;;12.07;2.95;;;20.80;72.60;;;;;;5026845;28;20196;-50
2023/03/29 11:20:54;;;;;;;15.63;4.33;;;20.80;72.60;;;;;;5018471;28;20207;-48
2023/03/29 11:23:36;;;;;;;18.42;5.28;;;20.80;72.60;;;;;;5025031;28;20486;-53
2023/03/29 11:26:12;;;;;;;11.77;3.58;;;20.80;72.60;;;;;;5024861;28;20246;-51
2023/03/29 11:28:44;;;;;;;13.20;3.47;;;20.80;72.80;;;;;;5023310;28;20282;-56
2023/03/29 11:31:19;;;;;;;6.95;2.53;;;20.80;72.60;;;;;;5023744;28;20556;-59
2023/03/29 11:33:57;;;;;;;14.32;3.33;;;20.80;72.70;;;;;;5028580;28;20202;-50
2023/03/29 11:36:31;;;;;;;10.40;2.97;;;20.80;72.60;;;;;;5020503;28;20223;-52
2023/03/29 11:39:05;;;;;;;11.73;2.55;;;20.80;72.60;;;;;;5025340;28;20196;-51
2023/03/29 11:41:36;;;;;;;12.80;3.07;;;20.80;72.60;;;;;;5023780;28;20196;-49
2023/03/29 11:44:06;;;;;;;9.60;2.88;;;20.80;72.60;;;;;;5022323;28;20995;-47
2023/03/29 11:46:36;;;;;;;11.53;3.07;;;20.80;72.60;;;;;;5026011;28;20199;-53
2023/03/29 11:49:10;;;;;;;11.63;2.30;;;20.90;72.80;;;;;;5029567;28;20790;-56
2023/03/29 11:51:40;;;;;;;4.57;1.70;;;20.90;72.70;;;;;;5018440;28;20215;-53
2023/03/29 11:54:16;;;;;;;19.75;3.08;;;20.90;72.80;;;;;;5026021;28;20200;-56
2023/03/29 11:56:47;;;;;;;14.03;2.43;;;20.90;72.80;;;;;;5025806;28;20195;-51
2023/03/29 11:59:18;;;;;;;6.20;1.83;;;20.90;72.70;;;;;;5023980;28;20454;-58
2023/03/29 12:01:48;;;;;;;6.53;1.77;;;20.90;72.80;;;;;;5025699;28;20478;-54
2023/03/29 12:04:21;;;;;;;8.80;2.73;;;20.90;72.80;;;;;;5024395;28;20451;-52
2023/03/29 12:06:55;;;;;;;6.88;3.33;;;20.90;72.80;;;;;;5025993;28;20470;-52
2023/03/29 12:09:30;;;;;;;5.00;1.73;;;20.90;72.80;;;;;;5031955;28;20231;-53
2023/03/29 12:12:06;;;;;;;8.18;2.20;;;20.90;72.80;;;;;;5023500;28;20462;-55
2023/03/29 12:14:54;;;;;;;8.48;3.58;;;20.90;72.80;;;;;;5024112;28;20647;-53
2023/03/29 12:17:27;;;;;;;4.53;1.93;;;20.90;72.80;;;;;;5026544;28;20196;-51
2023/03/29 12:20:10;;;;;;;7.80;2.37;;;20.90;72.80;;;;;;5026725;28;20458;-58
2023/03/29 12:22:37;;;;;;;5.77;1.90;;;20.90;72.80;;;;;;5021411;28;21039;-47
2023/03/29 12:25:07;;;;;;;7.53;2.00;;;20.90;72.80;;;;;;5023479;28;20471;-48
2023/03/29 12:27:42;;;;;;;5.45;2.33;;;20.90;72.80;;;;;;5027639;28;20871;-53
2023/03/29 12:30:32;;;;;;;14.53;2.07;;;20.90;72.80;;;;;;5029369;28;20685;-49
2023/03/29 12:33:13;;;;;;;7.03;1.98;;;20.90;72.80;;;;;;5028369;28;20456;-56
2023/03/29 12:35:52;;;;;;;4.00;2.28;;;21.00;72.90;;;;;;5026840;28;20216;-49
2023/03/29 12:38:22;;;;;;;5.55;1.52;;;21.00;72.90;;;;;;5026515;28;20200;-45
2023/03/29 12:40:55;;;;;;;5.93;2.00;;;21.00;72.90;;;;;;5025126;28;20208;-49
2023/03/29 12:43:25;;;;;;;6.95;1.58;;;21.00;72.90;;;;;;5025366;28;20469;-49
2023/03/29 12:45:55;;;;;;;5.33;2.23;;;21.00;73.10;;;;;;5024891;28;20220;-53
2023/03/29 12:48:25;;;;;;;8.97;1.80;;;21.00;73.30;;;;;;5029955;28;20463;-51
2023/03/29 12:50:55;;;;;;;3.87;1.83;;;21.00;73.20;;;;;;5027654;28;20810;-51
2023/03/29 12:53:25;;;;;;;4.80;1.47;;;21.00;73.20;;;;;;5025063;28;20458;-47
2023/03/29 12:56:08;;;;;;;5.93;1.50;;;21.00;73.30;;;;;;5024190;28;20540;-49
2023/03/29 12:58:48;;;;;;;3.03;1.42;;;21.00;73.40;;;;;;5029108;28;21024;-56